createdAt,value
2022-11-25T00:03:52.496Z,35.90
2022-11-25T00:08:59.169Z,33.30
2022-11-25T00:14:02.344Z,26.10
2022-11-25T00:19:05.556Z,37.00
2022-11-25T00:24:08.664Z,34.80
2022-11-25T00:29:14.404Z,39.10
2022-11-25T00:34:17.450Z,38.60
2022-11-25T00:39:20.452Z,37.90
2022-11-25T00:44:36.043Z,37.20
2022-11-25T00:49:41.980Z,47.50
2022-11-25T00:54:46.234Z,43.00
2022-11-25T00:59:49.881Z,40.00
2022-11-25T01:04:52.888Z,27.20
2022-11-25T01:09:55.895Z,50.70
2022-11-25T01:14:58.904Z,47.00
2022-11-25T01:20:03.853Z,30.00
2022-11-25T01:25:07.324Z,38.90
2022-11-25T01:30:11.008Z,54.80
2022-11-25T01:35:13.997Z,54.50
2022-11-25T01:40:17.513Z,42.30
2022-11-25T01:45:27.914Z,43.40
2022-11-25T01:50:34.235Z,41.90
2022-11-25T01:55:40.847Z,48.90
2022-11-25T02:00:51.524Z,36.00
2022-11-25T02:06:20.782Z,61.80
2022-11-25T02:11:26.957Z,47.90
2022-11-25T02:16:30.018Z,43.90
2022-11-25T02:21:50.481Z,34.10
2022-11-25T02:26:53.385Z,48.70
2022-11-25T02:31:56.418Z,37.50
2022-11-25T02:37:00.830Z,41.20
2022-11-25T02:42:04.145Z,35.30
2022-11-25T02:47:07.048Z,27.50
2022-11-25T02:52:10.055Z,32.20
2022-11-25T02:57:12.959Z,26.10
2022-11-25T03:02:16.010Z,23.70
2022-11-25T03:07:19.033Z,33.30
2022-11-25T03:12:22.187Z,41.80
2022-11-25T03:17:25.297Z,36.10
2022-11-25T03:22:28.407Z,34.70
2022-11-25T03:27:31.714Z,30.50
2022-11-25T03:32:34.932Z,33.10
2022-11-25T03:37:39.161Z,28.90
2022-11-25T03:42:43.051Z,20.70
2022-11-25T03:47:46.714Z,30.00
2022-11-25T03:52:49.818Z,38.40
2022-11-25T03:57:52.823Z,33.20
2022-11-25T04:02:55.965Z,34.90
2022-11-25T04:07:59.303Z,34.70
2022-11-25T04:13:02.479Z,41.90
2022-11-25T04:18:05.570Z,46.00
2022-11-25T04:23:09.759Z,30.80
2022-11-25T04:28:12.807Z,35.60
2022-11-25T04:33:15.916Z,35.90
2022-11-25T04:38:18.924Z,30.90
2022-11-25T04:43:22.030Z,26.80
2022-11-25T04:48:25.652Z,30.10
2022-11-25T04:53:28.863Z,29.40
2022-11-25T04:58:54.912Z,29.00
2022-11-25T05:03:58.024Z,30.00
2022-11-25T05:09:01.128Z,26.10
2022-11-25T05:14:04.234Z,29.10
2022-11-25T05:19:07.450Z,25.60
2022-11-25T05:24:10.862Z,25.20
2022-11-25T05:29:13.971Z,22.60
2022-11-25T05:34:17.389Z,25.30
2022-11-25T05:39:20.495Z,28.70
2022-11-25T05:44:23.707Z,21.30
2022-11-25T05:49:26.712Z,26.70
2022-11-25T05:54:29.717Z,18.70
2022-11-25T05:59:32.730Z,29.10
2022-11-25T06:04:36.189Z,23.20
2022-11-25T06:09:39.563Z,18.40
2022-11-25T06:14:42.569Z,21.90
2022-11-25T06:19:47.111Z,22.10
2022-11-25T06:24:57.547Z,13.20
2022-11-25T06:30:04.406Z,23.10
2022-11-25T06:35:07.901Z,19.40
2022-11-25T06:40:11.805Z,17.20
2022-11-25T06:45:14.936Z,13.70
2022-11-25T06:50:18.371Z,16.10
2022-11-25T06:55:21.465Z,18.30
2022-11-25T07:00:24.572Z,20.80
2022-11-25T07:05:27.782Z,19.80
2022-11-25T07:10:30.791Z,25.10
2022-11-25T07:15:35.063Z,20.20
2022-11-25T07:20:38.806Z,21.70
2022-11-25T07:25:41.752Z,18.40
2022-11-25T07:36:10.288Z,19.20
2022-11-25T07:41:16.068Z,17.90
2022-11-25T07:46:24.999Z,25.90
2022-11-25T07:51:36.314Z,24.70
2022-11-25T07:56:41.680Z,24.60
2022-11-25T08:01:45.355Z,21.90
2022-11-25T08:06:51.065Z,27.60
2022-11-25T08:11:54.379Z,23.60
2022-11-25T08:16:57.487Z,22.50
2022-11-25T08:22:00.602Z,23.90
2022-11-25T08:27:04.318Z,30.60
2022-11-25T08:32:11.793Z,29.00
2022-11-25T08:37:15.145Z,22.90
2022-11-25T08:42:18.559Z,27.50
2022-11-25T08:47:22.879Z,30.00
2022-11-25T08:52:26.824Z,26.90
2022-11-25T08:57:30.039Z,27.00
2022-11-25T09:02:33.091Z,32.00
2022-11-25T09:07:36.383Z,28.70
2022-11-25T09:12:39.566Z,24.90
2022-11-25T09:17:42.677Z,23.90
2022-11-25T09:22:45.783Z,26.90
2022-11-25T09:27:49.268Z,30.70
2022-11-25T09:32:54.868Z,28.20
2022-11-25T09:37:57.874Z,27.30
2022-11-25T09:43:41.843Z,31.30
2022-11-25T09:48:59.902Z,31.20
2022-11-25T09:54:24.616Z,29.10
2022-11-25T09:59:35.002Z,28.00
2022-11-25T10:04:47.591Z,25.90
2022-11-25T10:09:51.610Z,32.60
2022-11-25T10:15:02.003Z,29.10
2022-11-25T10:20:29.634Z,29.60
2022-11-25T10:25:44.487Z,24.60
2022-11-25T10:31:12.183Z,25.90
2022-11-25T10:36:37.006Z,30.10
2022-11-25T10:42:20.888Z,25.70
2022-11-25T10:47:57.039Z,26.10
2022-11-25T10:53:11.233Z,28.80
2022-11-25T10:58:42.606Z,31.20
2022-11-25T11:03:51.096Z,30.60
2022-11-25T11:08:54.136Z,29.80
2022-11-25T11:14:20.687Z,29.30
2022-11-25T11:19:29.646Z,31.20
2022-11-25T11:24:38.226Z,23.90
2022-11-25T11:29:41.593Z,29.50
2022-11-25T11:35:23.476Z,31.50
2022-11-25T11:40:46.565Z,31.60
2022-11-25T11:46:20.231Z,31.30
2022-11-25T11:51:38.174Z,32.60
2022-11-25T11:56:50.664Z,26.70
2022-11-25T12:02:07.230Z,26.80
2022-11-25T12:07:27.012Z,29.70
2022-11-25T12:12:43.055Z,25.30
2022-11-25T12:17:54.751Z,31.20
2022-11-25T12:23:22.534Z,35.80
2022-11-25T12:28:31.450Z,32.40
2022-11-25T12:33:53.633Z,26.70
2022-11-25T12:39:05.323Z,34.60
2022-11-25T12:44:21.254Z,34.50
2022-11-25T12:49:35.187Z,26.20
2022-11-25T12:54:44.264Z,34.00
2022-11-25T13:05:56.223Z,31.20
2022-11-25T13:10:59.437Z,27.70
2022-11-25T13:16:07.408Z,33.00
2022-11-25T13:21:13.239Z,35.10
2022-11-25T13:26:28.737Z,39.40
2022-11-25T13:31:34.984Z,36.90
2022-11-25T13:36:50.212Z,32.60
2022-11-25T13:42:11.584Z,36.70
2022-11-25T13:47:33.506Z,37.80
2022-11-25T13:52:59.742Z,46.70
2022-11-25T13:58:23.443Z,40.10
2022-11-25T14:03:29.489Z,31.20
2022-11-25T14:08:51.367Z,27.30
2022-11-25T14:13:54.579Z,26.00
2022-11-25T14:19:51.248Z,30.50
2022-11-25T14:24:48.278Z,24.00
2022-11-25T14:30:09.770Z,27.90
2022-11-25T14:35:21.699Z,22.40
2022-11-25T14:40:30.813Z,24.30
2022-11-25T14:45:35.854Z,26.60
2022-11-25T14:50:40.193Z,28.30
2022-11-25T14:55:48.824Z,31.70
2022-11-25T15:00:57.697Z,28.60
2022-11-25T15:06:04.771Z,24.50
2022-11-25T15:11:18.841Z,26.70
2022-11-25T15:16:26.201Z,25.60
2022-11-25T15:21:48.414Z,29.70
2022-11-25T15:27:02.607Z,27.60
2022-11-25T15:32:06.177Z,24.40
2022-11-25T15:37:11.576Z,26.10
2022-11-25T15:42:22.157Z,29.50
2022-11-25T15:52:33.805Z,24.90
2022-11-25T15:57:38.508Z,24.10
2022-11-25T16:02:44.602Z,26.00
2022-11-25T16:07:51.412Z,29.50
2022-11-25T16:13:30.433Z,24.50
2022-11-25T16:18:50.490Z,30.10
2022-11-25T16:24:14.154Z,28.90
2022-11-25T16:29:36.786Z,29.90
2022-11-25T16:34:40.422Z,30.20
2022-11-25T16:39:43.664Z,32.30
2022-11-25T16:44:51.845Z,32.20
2022-11-25T16:49:54.794Z,33.70
2022-11-25T16:54:57.907Z,38.00
2022-11-25T17:00:07.673Z,40.20
2022-11-25T17:05:21.441Z,34.90
2022-11-25T17:10:24.455Z,39.40
2022-11-25T17:15:36.510Z,33.10
2022-11-25T17:20:39.672Z,37.30
2022-11-25T17:25:49.518Z,39.60
2022-11-25T17:30:52.536Z,40.70
2022-11-25T17:35:55.645Z,39.60
2022-11-25T17:40:58.758Z,39.60
2022-11-25T17:46:02.023Z,33.20
2022-11-25T17:51:07.543Z,36.30
2022-11-25T17:56:20.372Z,39.10
2022-11-25T18:01:23.442Z,36.90
2022-11-25T18:06:26.591Z,32.90
2022-11-25T18:11:29.705Z,39.10
2022-11-25T18:16:35.501Z,38.80
2022-11-25T18:21:38.682Z,35.60
2022-11-25T18:26:45.574Z,35.80
2022-11-25T18:31:50.047Z,34.80
2022-11-25T18:36:53.942Z,40.80
2022-11-25T18:42:00.164Z,39.90
2022-11-25T18:47:05.703Z,44.90
2022-11-25T18:52:09.622Z,40.80
2022-11-25T18:57:14.706Z,45.20
2022-11-25T19:02:18.834Z,42.50
2022-11-25T19:07:22.162Z,36.90
2022-11-25T19:12:26.259Z,43.90
2022-11-25T19:17:29.367Z,38.90
2022-11-25T19:22:32.370Z,46.00
2022-11-25T19:27:49.100Z,46.00
2022-11-25T19:32:56.510Z,44.10
2022-11-25T19:37:59.715Z,42.50
2022-11-25T19:43:02.662Z,46.20
2022-11-25T19:48:12.387Z,48.70
2022-11-25T19:53:19.166Z,36.80
2022-11-25T19:58:23.417Z,49.30
2022-11-25T20:03:30.186Z,43.30
2022-11-25T20:08:33.351Z,49.00
2022-11-25T20:13:36.847Z,46.60
2022-11-25T20:18:40.157Z,55.80
2022-11-25T20:23:44.443Z,52.60
2022-11-25T20:28:47.703Z,55.20
2022-11-25T20:33:50.812Z,59.40
2022-11-25T20:38:56.171Z,50.70
2022-11-25T20:44:00.325Z,54.10
2022-11-25T20:49:33.836Z,61.50
2022-11-25T20:54:37.421Z,50.70
2022-11-25T20:59:40.565Z,60.30
2022-11-25T21:04:43.778Z,60.10
2022-11-25T21:09:47.036Z,60.40
2022-11-25T21:14:50.494Z,64.90
2022-11-25T21:19:53.452Z,56.80
2022-11-25T21:24:56.507Z,65.40
2022-11-25T21:29:59.718Z,56.30
2022-11-25T21:35:04.156Z,60.90
2022-11-25T21:40:17.815Z,57.60
2022-11-25T21:45:20.924Z,57.80
2022-11-25T21:50:24.139Z,56.70
2022-11-25T21:55:27.349Z,56.40
2022-11-25T22:00:30.657Z,60.20
2022-11-25T22:05:33.778Z,54.80
2022-11-25T22:10:38.682Z,54.90
2022-11-25T22:15:41.726Z,55.10
2022-11-25T22:20:48.197Z,49.00
2022-11-25T22:25:54.598Z,47.30
2022-11-25T22:31:05.204Z,49.40
2022-11-25T22:36:41.169Z,48.40
2022-11-25T22:41:48.681Z,56.90
2022-11-25T22:46:53.731Z,64.00
2022-11-25T22:51:57.884Z,56.10
2022-11-25T22:57:01.071Z,70.00
2022-11-25T23:02:04.646Z,59.60
2022-11-25T23:07:13.921Z,66.20
2022-11-25T23:12:17.973Z,67.80
2022-11-25T23:17:25.478Z,65.20
2022-11-25T23:22:28.516Z,57.40
2022-11-25T23:27:31.613Z,53.20
2022-11-25T23:32:34.819Z,57.40
2022-11-25T23:37:37.923Z,47.90
2022-11-25T23:42:40.935Z,39.60
2022-11-25T23:47:46.301Z,37.80
2022-11-25T23:52:50.834Z,47.70
2022-11-25T23:57:54.247Z,48.90
